Terminal Aerodrome Forecast
Issued by NWS

Home | Current Version | Previous Version | Text Only | Print | Product List | Glossary On
Versions: 1 2 3 4 5 6 7 8 9 10 11 12 13 14 15 16 17 18 19 20 21 22 23 24 25 26 27 28 29 30 31 32 33 34 35 36 37 38
000
FTAK31 PAFA 311141
TAFAQT
TAF
PAQT 311141Z 3112/0112 08011KT P6SM SCT010
     FM311400 11006KT 1SM BR OVC008
     FM311800 13007KT 5SM BR OVC008
     FM312000 18013KT P6SM BKN100
     FM010500 25018KT 5SM -RA BR OVC025=

USA.gov is the U.S. government's official web portal to all federal, state and local government web resources and services.